sensor_id;sensor_type;location;lat;lon;timestamp;temperature;humidity
65050;DHT22;52090;51.224;-2.328;2022-07-10T00:01:16;20.00;52.70
65050;DHT22;52090;51.224;-2.328;2022-07-10T00:04:58;19.90;52.70
65050;DHT22;52090;51.224;-2.328;2022-07-10T00:08:39;19.90;52.70
65050;DHT22;52090;51.224;-2.328;2022-07-10T00:12:22;19.80;52.70
65050;DHT22;52090;51.224;-2.328;2022-07-10T00:16:04;19.80;52.70
65050;DHT22;52090;51.224;-2.328;2022-07-10T00:19:47;19.70;52.60
65050;DHT22;52090;51.224;-2.328;2022-07-10T00:23:29;19.70;52.70
65050;DHT22;52090;51.224;-2.328;2022-07-10T00:27:10;19.60;52.80
65050;DHT22;52090;51.224;-2.328;2022-07-10T00:30:52;19.60;52.70
65050;DHT22;52090;51.224;-2.328;2022-07-10T00:34:34;19.50;52.70
65050;DHT22;52090;51.224;-2.328;2022-07-10T00:38:16;19.50;52.80
65050;DHT22;52090;51.224;-2.328;2022-07-10T00:42:09;19.40;52.80
65050;DHT22;52090;51.224;-2.328;2022-07-10T00:45:51;19.40;53.10
65050;DHT22;52090;51.224;-2.328;2022-07-10T00:49:34;19.30;52.90
65050;DHT22;52090;51.224;-2.328;2022-07-10T00:53:16;19.30;52.90
65050;DHT22;52090;51.224;-2.328;2022-07-10T00:56:59;19.30;52.90
65050;DHT22;52090;51.224;-2.328;2022-07-10T01:00:41;19.20;53.00
65050;DHT22;52090;51.224;-2.328;2022-07-10T01:04:24;19.20;53.10
65050;DHT22;52090;51.224;-2.328;2022-07-10T01:08:06;19.10;53.10
65050;DHT22;52090;51.224;-2.328;2022-07-10T01:11:48;19.00;53.20
65050;DHT22;52090;51.224;-2.328;2022-07-10T01:15:30;19.00;53.30
65050;DHT22;52090;51.224;-2.328;2022-07-10T01:19:12;18.90;53.40
65050;DHT22;52090;51.224;-2.328;2022-07-10T01:22:53;18.90;53.50
65050;DHT22;52090;51.224;-2.328;2022-07-10T01:26:36;18.80;53.60
65050;DHT22;52090;51.224;-2.328;2022-07-10T01:30:18;18.80;53.80
65050;DHT22;52090;51.224;-2.328;2022-07-10T01:34:02;18.80;53.80
65050;DHT22;52090;51.224;-2.328;2022-07-10T01:37:46;18.70;53.90
65050;DHT22;52090;51.224;-2.328;2022-07-10T01:41:28;18.70;53.90
65050;DHT22;52090;51.224;-2.328;2022-07-10T01:45:10;18.60;54.20
65050;DHT22;52090;51.224;-2.328;2022-07-10T01:48:52;18.60;54.40
65050;DHT22;52090;51.224;-2.328;2022-07-10T01:52:35;18.50;54.30
65050;DHT22;52090;51.224;-2.328;2022-07-10T01:56:17;18.50;54.30
65050;DHT22;52090;51.224;-2.328;2022-07-10T01:59:59;18.50;54.30
65050;DHT22;52090;51.224;-2.328;2022-07-10T02:03:41;18.40;54.40
65050;DHT22;52090;51.224;-2.328;2022-07-10T02:07:42;18.40;54.50
65050;DHT22;52090;51.224;-2.328;2022-07-10T02:11:24;18.30;54.60
65050;DHT22;52090;51.224;-2.328;2022-07-10T02:15:06;18.30;54.70
65050;DHT22;52090;51.224;-2.328;2022-07-10T02:18:48;18.20;54.80
65050;DHT22;52090;51.224;-2.328;2022-07-10T02:22:30;18.10;54.80
65050;DHT22;52090;51.224;-2.328;2022-07-10T02:26:12;18.10;55.00
65050;DHT22;52090;51.224;-2.328;2022-07-10T02:29:54;18.00;55.10
65050;DHT22;52090;51.224;-2.328;2022-07-10T02:33:35;18.00;55.20
65050;DHT22;52090;51.224;-2.328;2022-07-10T02:37:18;18.00;55.20
65050;DHT22;52090;51.224;-2.328;2022-07-10T02:41:00;17.90;55.20
65050;DHT22;52090;51.224;-2.328;2022-07-10T02:44:42;17.80;55.30
65050;DHT22;52090;51.224;-2.328;2022-07-10T02:48:24;17.80;55.40
65050;DHT22;52090;51.224;-2.328;2022-07-10T02:52:06;17.70;55.50
65050;DHT22;52090;51.224;-2.328;2022-07-10T02:55:48;17.70;55.60
65050;DHT22;52090;51.224;-2.328;2022-07-10T02:59:30;17.60;55.60
65050;DHT22;52090;51.224;-2.328;2022-07-10T03:03:11;17.60;55.70
65050;DHT22;52090;51.224;-2.328;2022-07-10T03:06:53;17.50;55.80
65050;DHT22;52090;51.224;-2.328;2022-07-10T03:10:36;17.50;55.90
65050;DHT22;52090;51.224;-2.328;2022-07-10T03:14:18;17.40;56.10
65050;DHT22;52090;51.224;-2.328;2022-07-10T03:18:00;17.40;56.20
65050;DHT22;52090;51.224;-2.328;2022-07-10T03:21:42;17.30;56.20
65050;DHT22;52090;51.224;-2.328;2022-07-10T03:25:24;17.20;56.30
65050;DHT22;52090;51.224;-2.328;2022-07-10T03:29:06;17.20;56.50
65050;DHT22;52090;51.224;-2.328;2022-07-10T03:32:48;17.10;56.70
65050;DHT22;52090;51.224;-2.328;2022-07-10T03:36:30;17.00;56.90
65050;DHT22;52090;51.224;-2.328;2022-07-10T03:40:12;17.00;57.00
65050;DHT22;52090;51.224;-2.328;2022-07-10T03:43:53;16.90;57.10
65050;DHT22;52090;51.224;-2.328;2022-07-10T03:47:35;16.90;57.30
65050;DHT22;52090;51.224;-2.328;2022-07-10T03:51:17;16.90;57.40
65050;DHT22;52090;51.224;-2.328;2022-07-10T03:54:59;16.80;57.70
65050;DHT22;52090;51.224;-2.328;2022-07-10T03:58:41;16.70;58.20
65050;DHT22;52090;51.224;-2.328;2022-07-10T04:02:23;16.60;58.50
65050;DHT22;52090;51.224;-2.328;2022-07-10T04:06:05;16.60;58.80
65050;DHT22;52090;51.224;-2.328;2022-07-10T04:09:47;16.60;59.20
65050;DHT22;52090;51.224;-2.328;2022-07-10T04:13:28;16.60;59.20
65050;DHT22;52090;51.224;-2.328;2022-07-10T04:17:10;16.60;59.30
65050;DHT22;52090;51.224;-2.328;2022-07-10T04:20:52;16.50;59.70
65050;DHT22;52090;51.224;-2.328;2022-07-10T04:24:34;16.50;59.80
65050;DHT22;52090;51.224;-2.328;2022-07-10T04:28:16;16.50;59.70
65050;DHT22;52090;51.224;-2.328;2022-07-10T04:31:58;16.60;59.90
65050;DHT22;52090;51.224;-2.328;2022-07-10T04:35:41;16.60;60.00
65050;DHT22;52090;51.224;-2.328;2022-07-10T04:39:22;16.60;60.10
65050;DHT22;52090;51.224;-2.328;2022-07-10T04:43:04;16.50;60.30
65050;DHT22;52090;51.224;-2.328;2022-07-10T04:46:46;16.40;60.50
65050;DHT22;52090;51.224;-2.328;2022-07-10T04:50:29;16.30;60.80
65050;DHT22;52090;51.224;-2.328;2022-07-10T04:54:12;16.30;60.80
65050;DHT22;52090;51.224;-2.328;2022-07-10T04:57:54;16.30;61.10
65050;DHT22;52090;51.224;-2.328;2022-07-10T05:01:36;16.30;61.20
65050;DHT22;52090;51.224;-2.328;2022-07-10T05:05:19;16.30;61.40
65050;DHT22;52090;51.224;-2.328;2022-07-10T05:09:02;16.40;61.40
65050;DHT22;52090;51.224;-2.328;2022-07-10T05:12:44;16.40;61.60
65050;DHT22;52090;51.224;-2.328;2022-07-10T05:16:26;16.50;61.30
65050;DHT22;52090;51.224;-2.328;2022-07-10T05:20:08;16.50;61.20
65050;DHT22;52090;51.224;-2.328;2022-07-10T05:23:50;16.60;61.30
65050;DHT22;52090;51.224;-2.328;2022-07-10T05:27:32;16.60;61.40
65050;DHT22;52090;51.224;-2.328;2022-07-10T05:31:14;16.60;61.60
65050;DHT22;52090;51.224;-2.328;2022-07-10T05:34:57;16.60;61.70
65050;DHT22;52090;51.224;-2.328;2022-07-10T05:38:40;16.70;62.30
65050;DHT22;52090;51.224;-2.328;2022-07-10T05:42:22;17.10;62.20
65050;DHT22;52090;51.224;-2.328;2022-07-10T05:46:04;17.60;61.90
65050;DHT22;52090;51.224;-2.328;2022-07-10T05:49:47;18.20;61.40
65050;DHT22;52090;51.224;-2.328;2022-07-10T05:53:29;18.70;61.20
65050;DHT22;52090;51.224;-2.328;2022-07-10T05:57:11;19.20;60.70
65050;DHT22;52090;51.224;-2.328;2022-07-10T06:00:53;19.70;60.30
65050;DHT22;52090;51.224;-2.328;2022-07-10T06:04:35;20.00;59.90
65050;DHT22;52090;51.224;-2.328;2022-07-10T06:08:18;20.30;59.70
65050;DHT22;52090;51.224;-2.328;2022-07-10T06:12:00;20.60;59.50
65050;DHT22;52090;51.224;-2.328;2022-07-10T06:15:42;20.70;59.50
65050;DHT22;52090;51.224;-2.328;2022-07-10T06:19:24;20.90;59.40
65050;DHT22;52090;51.224;-2.328;2022-07-10T06:23:06;21.10;59.20
65050;DHT22;52090;51.224;-2.328;2022-07-10T06:26:48;21.30;59.00
65050;DHT22;52090;51.224;-2.328;2022-07-10T06:30:30;21.50;58.70
65050;DHT22;52090;51.224;-2.328;2022-07-10T06:34:12;21.80;58.40
65050;DHT22;52090;51.224;-2.328;2022-07-10T06:38:00;21.90;58.10
65050;DHT22;52090;51.224;-2.328;2022-07-10T06:41:42;22.00;57.90
65050;DHT22;52090;51.224;-2.328;2022-07-10T06:45:24;22.00;57.70
65050;DHT22;52090;51.224;-2.328;2022-07-10T06:49:06;22.20;57.50
65050;DHT22;52090;51.224;-2.328;2022-07-10T06:52:49;22.40;57.20
65050;DHT22;52090;51.224;-2.328;2022-07-10T06:56:31;22.40;57.00
65050;DHT22;52090;51.224;-2.328;2022-07-10T07:00:13;22.50;57.00
65050;DHT22;52090;51.224;-2.328;2022-07-10T07:03:55;22.60;56.90
65050;DHT22;52090;51.224;-2.328;2022-07-10T07:07:37;22.60;56.80
65050;DHT22;52090;51.224;-2.328;2022-07-10T07:11:19;22.60;56.60
65050;DHT22;52090;51.224;-2.328;2022-07-10T07:15:01;22.90;56.30
65050;DHT22;52090;51.224;-2.328;2022-07-10T07:18:43;22.90;56.00
65050;DHT22;52090;51.224;-2.328;2022-07-10T07:22:34;23.10;55.80
65050;DHT22;52090;51.224;-2.328;2022-07-10T07:26:34;23.30;55.50
65050;DHT22;52090;51.224;-2.328;2022-07-10T07:30:16;23.50;55.30
65050;DHT22;52090;51.224;-2.328;2022-07-10T07:33:58;23.60;54.80
65050;DHT22;52090;51.224;-2.328;2022-07-10T07:37:42;23.70;54.80
65050;DHT22;52090;51.224;-2.328;2022-07-10T07:41:24;23.70;54.30
65050;DHT22;52090;51.224;-2.328;2022-07-10T07:45:08;23.90;54.10
65050;DHT22;52090;51.224;-2.328;2022-07-10T07:48:50;23.90;53.90
65050;DHT22;52090;51.224;-2.328;2022-07-10T07:52:33;24.00;53.70
65050;DHT22;52090;51.224;-2.328;2022-07-10T07:56:17;24.10;53.60
65050;DHT22;52090;51.224;-2.328;2022-07-10T07:59:59;24.20;53.30
65050;DHT22;52090;51.224;-2.328;2022-07-10T08:03:41;24.40;53.10
65050;DHT22;52090;51.224;-2.328;2022-07-10T08:07:46;24.50;53.30
65050;DHT22;52090;51.224;-2.328;2022-07-10T08:11:28;24.50;52.60
65050;DHT22;52090;51.224;-2.328;2022-07-10T08:15:11;24.60;52.90
65050;DHT22;52090;51.224;-2.328;2022-07-10T08:18:53;24.70;52.70
65050;DHT22;52090;51.224;-2.328;2022-07-10T08:22:35;24.90;53.10
65050;DHT22;52090;51.224;-2.328;2022-07-10T08:26:17;24.90;52.10
65050;DHT22;52090;51.224;-2.328;2022-07-10T08:29:59;25.00;52.20
65050;DHT22;52090;51.224;-2.328;2022-07-10T08:33:42;25.10;51.90
65050;DHT22;52090;51.224;-2.328;2022-07-10T08:37:24;25.10;51.60
65050;DHT22;52090;51.224;-2.328;2022-07-10T08:41:06;25.10;51.70
65050;DHT22;52090;51.224;-2.328;2022-07-10T08:44:48;25.10;51.80
65050;DHT22;52090;51.224;-2.328;2022-07-10T08:48:32;25.20;51.60
65050;DHT22;52090;51.224;-2.328;2022-07-10T08:52:44;25.30;52.00
65050;DHT22;52090;51.224;-2.328;2022-07-10T08:56:33;25.20;50.60
65050;DHT22;52090;51.224;-2.328;2022-07-10T09:00:15;25.30;51.60
65050;DHT22;52090;51.224;-2.328;2022-07-10T09:03:58;25.10;51.60
65050;DHT22;52090;51.224;-2.328;2022-07-10T09:07:41;24.90;52.20
65050;DHT22;52090;51.224;-2.328;2022-07-10T09:11:24;25.00;51.90
65050;DHT22;52090;51.224;-2.328;2022-07-10T09:15:18;25.10;51.80
65050;DHT22;52090;51.224;-2.328;2022-07-10T09:23:22;25.00;51.50
65050;DHT22;52090;51.224;-2.328;2022-07-10T09:27:05;24.80;52.00
65050;DHT22;52090;51.224;-2.328;2022-07-10T09:30:47;25.00;52.10
65050;DHT22;52090;51.224;-2.328;2022-07-10T09:34:52;25.10;51.90
65050;DHT22;52090;51.224;-2.328;2022-07-10T09:38:54;25.30;51.40
65050;DHT22;52090;51.224;-2.328;2022-07-10T09:42:38;25.30;51.70
65050;DHT22;52090;51.224;-2.328;2022-07-10T09:46:23;25.10;52.00
65050;DHT22;52090;51.224;-2.328;2022-07-10T09:54:03;24.90;52.00
65050;DHT22;52090;51.224;-2.328;2022-07-10T09:57:53;24.70;52.70
65050;DHT22;52090;51.224;-2.328;2022-07-10T10:01:37;24.60;53.00
65050;DHT22;52090;51.224;-2.328;2022-07-10T10:05:34;24.60;53.00
65050;DHT22;52090;51.224;-2.328;2022-07-10T10:09:38;24.50;53.30
65050;DHT22;52090;51.224;-2.328;2022-07-10T10:13:24;24.40;53.40
65050;DHT22;52090;51.224;-2.328;2022-07-10T10:17:08;24.40;53.60
65050;DHT22;52090;51.224;-2.328;2022-07-10T10:20:53;24.40;53.90
65050;DHT22;52090;51.224;-2.328;2022-07-10T10:24:37;24.40;53.70
65050;DHT22;52090;51.224;-2.328;2022-07-10T10:28:21;24.40;53.50
65050;DHT22;52090;51.224;-2.328;2022-07-10T10:32:07;24.40;53.70
65050;DHT22;52090;51.224;-2.328;2022-07-10T10:35:50;24.40;54.00
65050;DHT22;52090;51.224;-2.328;2022-07-10T10:39:51;24.50;53.30
65050;DHT22;52090;51.224;-2.328;2022-07-10T10:43:40;24.40;52.90
65050;DHT22;52090;51.224;-2.328;2022-07-10T10:47:21;24.50;53.20
65050;DHT22;52090;51.224;-2.328;2022-07-10T10:51:04;24.50;53.00
65050;DHT22;52090;51.224;-2.328;2022-07-10T10:58:45;24.50;52.50
65050;DHT22;52090;51.224;-2.328;2022-07-10T11:02:32;24.50;52.10
65050;DHT22;52090;51.224;-2.328;2022-07-10T11:06:49;24.60;52.30
65050;DHT22;52090;51.224;-2.328;2022-07-10T11:14:29;24.70;51.40
65050;DHT22;52090;51.224;-2.328;2022-07-10T11:18:18;24.80;51.60
65050;DHT22;52090;51.224;-2.328;2022-07-10T11:22:17;24.90;51.10
65050;DHT22;52090;51.224;-2.328;2022-07-10T11:26:05;24.90;50.20
65050;DHT22;52090;51.224;-2.328;2022-07-10T11:29:59;24.90;50.50
65050;DHT22;52090;51.224;-2.328;2022-07-10T11:33:52;25.00;50.80
65050;DHT22;52090;51.224;-2.328;2022-07-10T11:37:34;25.10;49.10
65050;DHT22;52090;51.224;-2.328;2022-07-10T11:41:18;25.10;49.80
65050;DHT22;52090;51.224;-2.328;2022-07-10T11:45:29;25.10;49.20
65050;DHT22;52090;51.224;-2.328;2022-07-10T11:49:12;25.20;48.00
65050;DHT22;52090;51.224;-2.328;2022-07-10T11:52:56;25.20;49.10
65050;DHT22;52090;51.224;-2.328;2022-07-10T11:56:40;25.20;49.00
65050;DHT22;52090;51.224;-2.328;2022-07-10T12:00:24;25.30;48.90
65050;DHT22;52090;51.224;-2.328;2022-07-10T12:04:08;25.30;48.30
65050;DHT22;52090;51.224;-2.328;2022-07-10T12:07:51;25.40;48.10
65050;DHT22;52090;51.224;-2.328;2022-07-10T12:11:34;25.40;47.90
65050;DHT22;52090;51.224;-2.328;2022-07-10T12:15:35;25.50;48.40
65050;DHT22;52090;51.224;-2.328;2022-07-10T12:19:26;25.60;47.80
65050;DHT22;52090;51.224;-2.328;2022-07-10T12:23:09;25.80;47.50
65050;DHT22;52090;51.224;-2.328;2022-07-10T12:26:52;25.90;47.90
65050;DHT22;52090;51.224;-2.328;2022-07-10T12:30:43;25.90;47.50
65050;DHT22;52090;51.224;-2.328;2022-07-10T12:34:36;26.00;46.40
65050;DHT22;52090;51.224;-2.328;2022-07-10T12:38:20;26.00;46.60
65050;DHT22;52090;51.224;-2.328;2022-07-10T12:42:05;26.00;47.10
65050;DHT22;52090;51.224;-2.328;2022-07-10T12:46:07;26.10;47.20
65050;DHT22;52090;51.224;-2.328;2022-07-10T12:49:56;26.10;46.90
65050;DHT22;52090;51.224;-2.328;2022-07-10T12:53:46;26.10;47.70
65050;DHT22;52090;51.224;-2.328;2022-07-10T12:57:28;26.10;47.50
65050;DHT22;52090;51.224;-2.328;2022-07-10T13:01:11;26.20;47.90
65050;DHT22;52090;51.224;-2.328;2022-07-10T13:04:54;26.30;47.80
65050;DHT22;52090;51.224;-2.328;2022-07-10T13:08:45;26.40;48.00
65050;DHT22;52090;51.224;-2.328;2022-07-10T13:12:28;26.40;47.30
65050;DHT22;52090;51.224;-2.328;2022-07-10T13:16:10;26.50;48.10
65050;DHT22;52090;51.224;-2.328;2022-07-10T13:19:52;26.50;47.90
65050;DHT22;52090;51.224;-2.328;2022-07-10T13:23:34;26.60;47.80
65050;DHT22;52090;51.224;-2.328;2022-07-10T13:27:16;26.60;47.70
65050;DHT22;52090;51.224;-2.328;2022-07-10T13:30:58;26.60;47.50
65050;DHT22;52090;51.224;-2.328;2022-07-10T13:34:40;26.70;47.60
65050;DHT22;52090;51.224;-2.328;2022-07-10T13:38:22;26.80;47.50
65050;DHT22;52090;51.224;-2.328;2022-07-10T13:42:06;26.80;47.50
65050;DHT22;52090;51.224;-2.328;2022-07-10T13:45:48;26.80;47.40
65050;DHT22;52090;51.224;-2.328;2022-07-10T13:49:30;26.80;47.20
65050;DHT22;52090;51.224;-2.328;2022-07-10T13:53:13;26.80;47.00
65050;DHT22;52090;51.224;-2.328;2022-07-10T13:56:54;26.80;47.30
65050;DHT22;52090;51.224;-2.328;2022-07-10T14:00:37;26.80;47.70
65050;DHT22;52090;51.224;-2.328;2022-07-10T14:04:19;26.70;46.60
65050;DHT22;52090;51.224;-2.328;2022-07-10T14:08:02;26.60;46.40
65050;DHT22;52090;51.224;-2.328;2022-07-10T14:11:44;26.60;46.40
65050;DHT22;52090;51.224;-2.328;2022-07-10T14:15:26;26.50;46.90
65050;DHT22;52090;51.224;-2.328;2022-07-10T14:19:08;26.50;46.70
65050;DHT22;52090;51.224;-2.328;2022-07-10T14:22:52;26.50;46.50
65050;DHT22;52090;51.224;-2.328;2022-07-10T14:26:34;26.50;46.40
65050;DHT22;52090;51.224;-2.328;2022-07-10T14:30:17;26.50;46.40
65050;DHT22;52090;51.224;-2.328;2022-07-10T14:34:01;26.40;46.50
65050;DHT22;52090;51.224;-2.328;2022-07-10T14:37:43;26.40;46.40
65050;DHT22;52090;51.224;-2.328;2022-07-10T14:41:25;26.40;46.30
65050;DHT22;52090;51.224;-2.328;2022-07-10T14:45:08;26.40;46.10
65050;DHT22;52090;51.224;-2.328;2022-07-10T14:49:10;26.30;45.80
65050;DHT22;52090;51.224;-2.328;2022-07-10T14:52:53;26.30;45.40
65050;DHT22;52090;51.224;-2.328;2022-07-10T14:56:35;26.20;45.20
65050;DHT22;52090;51.224;-2.328;2022-07-10T15:00:16;26.20;45.10
65050;DHT22;52090;51.224;-2.328;2022-07-10T15:04:00;26.20;45.00
65050;DHT22;52090;51.224;-2.328;2022-07-10T15:07:42;26.10;44.90
65050;DHT22;52090;51.224;-2.328;2022-07-10T15:11:24;26.10;45.00
65050;DHT22;52090;51.224;-2.328;2022-07-10T15:15:07;26.10;45.10
65050;DHT22;52090;51.224;-2.328;2022-07-10T15:18:49;26.10;44.90
65050;DHT22;52090;51.224;-2.328;2022-07-10T15:22:32;26.20;45.00
65050;DHT22;52090;51.224;-2.328;2022-07-10T15:26:14;26.20;44.80
65050;DHT22;52090;51.224;-2.328;2022-07-10T15:29:57;26.20;44.70
65050;DHT22;52090;51.224;-2.328;2022-07-10T15:33:39;26.10;44.90
65050;DHT22;52090;51.224;-2.328;2022-07-10T15:37:26;26.10;44.70
65050;DHT22;52090;51.224;-2.328;2022-07-10T15:41:08;26.10;44.60
65050;DHT22;52090;51.224;-2.328;2022-07-10T15:44:50;26.10;44.40
65050;DHT22;52090;51.224;-2.328;2022-07-10T15:48:32;26.10;44.50
65050;DHT22;52090;51.224;-2.328;2022-07-10T15:52:14;26.10;44.50
65050;DHT22;52090;51.224;-2.328;2022-07-10T15:55:56;26.10;44.30
65050;DHT22;52090;51.224;-2.328;2022-07-10T15:59:38;26.10;44.20
65050;DHT22;52090;51.224;-2.328;2022-07-10T16:03:20;26.10;44.20
65050;DHT22;52090;51.224;-2.328;2022-07-10T16:07:02;26.20;44.40
65050;DHT22;52090;51.224;-2.328;2022-07-10T16:10:44;26.20;44.50
65050;DHT22;52090;51.224;-2.328;2022-07-10T16:14:26;26.20;44.50
65050;DHT22;52090;51.224;-2.328;2022-07-10T16:18:08;26.30;44.50
65050;DHT22;52090;51.224;-2.328;2022-07-10T16:21:50;26.30;44.40
65050;DHT22;52090;51.224;-2.328;2022-07-10T16:25:32;26.30;44.30
65050;DHT22;52090;51.224;-2.328;2022-07-10T16:29:32;26.30;44.10
65050;DHT22;52090;51.224;-2.328;2022-07-10T16:33:15;26.20;44.10
65050;DHT22;52090;51.224;-2.328;2022-07-10T16:36:57;26.20;44.20
65050;DHT22;52090;51.224;-2.328;2022-07-10T16:40:39;26.20;44.50
65050;DHT22;52090;51.224;-2.328;2022-07-10T16:44:21;26.20;44.10
65050;DHT22;52090;51.224;-2.328;2022-07-10T16:48:09;26.20;44.10
65050;DHT22;52090;51.224;-2.328;2022-07-10T16:51:51;26.20;43.80
65050;DHT22;52090;51.224;-2.328;2022-07-10T16:55:33;26.10;43.50
65050;DHT22;52090;51.224;-2.328;2022-07-10T16:59:15;26.10;43.50
65050;DHT22;52090;51.224;-2.328;2022-07-10T17:02:57;26.10;43.50
65050;DHT22;52090;51.224;-2.328;2022-07-10T17:06:39;26.10;43.60
65050;DHT22;52090;51.224;-2.328;2022-07-10T17:10:21;26.10;43.50
65050;DHT22;52090;51.224;-2.328;2022-07-10T17:14:03;26.10;43.30
65050;DHT22;52090;51.224;-2.328;2022-07-10T17:17:45;26.10;43.10
65050;DHT22;52090;51.224;-2.328;2022-07-10T17:21:27;26.10;42.90
65050;DHT22;52090;51.224;-2.328;2022-07-10T17:25:29;26.10;43.00
65050;DHT22;52090;51.224;-2.328;2022-07-10T17:29:11;26.00;42.90
65050;DHT22;52090;51.224;-2.328;2022-07-10T17:32:53;26.00;42.60
65050;DHT22;52090;51.224;-2.328;2022-07-10T17:36:39;26.00;42.50
65050;DHT22;52090;51.224;-2.328;2022-07-10T17:40:21;26.00;42.20
65050;DHT22;52090;51.224;-2.328;2022-07-10T17:44:05;26.00;42.20
65050;DHT22;52090;51.224;-2.328;2022-07-10T17:47:47;26.00;41.80
65050;DHT22;52090;51.224;-2.328;2022-07-10T17:51:29;25.90;41.80
65050;DHT22;52090;51.224;-2.328;2022-07-10T17:55:11;25.90;41.70
65050;DHT22;52090;51.224;-2.328;2022-07-10T17:58:53;25.90;41.70
65050;DHT22;52090;51.224;-2.328;2022-07-10T18:02:36;25.90;41.40
65050;DHT22;52090;51.224;-2.328;2022-07-10T18:06:18;25.90;41.20
65050;DHT22;52090;51.224;-2.328;2022-07-10T18:10:00;25.80;40.90
65050;DHT22;52090;51.224;-2.328;2022-07-10T18:13:42;25.80;41.00
65050;DHT22;52090;51.224;-2.328;2022-07-10T18:17:24;25.80;40.80
65050;DHT22;52090;51.224;-2.328;2022-07-10T18:21:07;25.80;41.20
65050;DHT22;52090;51.224;-2.328;2022-07-10T18:24:49;25.80;41.10
65050;DHT22;52090;51.224;-2.328;2022-07-10T18:28:32;25.80;41.20
65050;DHT22;52090;51.224;-2.328;2022-07-10T18:32:16;25.80;41.20
65050;DHT22;52090;51.224;-2.328;2022-07-10T18:35:58;25.80;41.20
65050;DHT22;52090;51.224;-2.328;2022-07-10T18:39:40;25.70;41.50
65050;DHT22;52090;51.224;-2.328;2022-07-10T18:43:21;25.70;41.40
65050;DHT22;52090;51.224;-2.328;2022-07-10T18:47:04;25.70;41.50
65050;DHT22;52090;51.224;-2.328;2022-07-10T18:50:46;25.60;41.40
65050;DHT22;52090;51.224;-2.328;2022-07-10T18:54:27;25.60;41.40
65050;DHT22;52090;51.224;-2.328;2022-07-10T18:58:09;25.60;41.40
65050;DHT22;52090;51.224;-2.328;2022-07-10T19:01:51;25.60;41.40
65050;DHT22;52090;51.224;-2.328;2022-07-10T19:05:34;25.50;41.20
65050;DHT22;52090;51.224;-2.328;2022-07-10T19:09:16;25.50;41.30
65050;DHT22;52090;51.224;-2.328;2022-07-10T19:12:58;25.50;41.70
65050;DHT22;52090;51.224;-2.328;2022-07-10T19:16:40;25.40;41.50
65050;DHT22;52090;51.224;-2.328;2022-07-10T19:20:23;25.40;41.50
65050;DHT22;52090;51.224;-2.328;2022-07-10T19:24:05;25.40;41.50
65050;DHT22;52090;51.224;-2.328;2022-07-10T19:27:47;25.30;41.50
65050;DHT22;52090;51.224;-2.328;2022-07-10T19:31:30;25.30;41.60
65050;DHT22;52090;51.224;-2.328;2022-07-10T19:35:13;25.20;41.50
65050;DHT22;52090;51.224;-2.328;2022-07-10T19:38:55;25.20;41.60
65050;DHT22;52090;51.224;-2.328;2022-07-10T19:42:38;25.20;41.60
65050;DHT22;52090;51.224;-2.328;2022-07-10T19:46:20;25.10;41.50
65050;DHT22;52090;51.224;-2.328;2022-07-10T19:50:03;25.10;41.60
65050;DHT22;52090;51.224;-2.328;2022-07-10T19:53:46;25.10;41.60
65050;DHT22;52090;51.224;-2.328;2022-07-10T19:57:28;25.00;41.70
65050;DHT22;52090;51.224;-2.328;2022-07-10T20:01:10;24.90;41.80
65050;DHT22;52090;51.224;-2.328;2022-07-10T20:04:52;24.90;41.90
65050;DHT22;52090;51.224;-2.328;2022-07-10T20:08:35;24.80;42.00
65050;DHT22;52090;51.224;-2.328;2022-07-10T20:12:17;24.70;42.10
65050;DHT22;52090;51.224;-2.328;2022-07-10T20:15:59;24.70;42.20
65050;DHT22;52090;51.224;-2.328;2022-07-10T20:19:49;24.60;42.20
65050;DHT22;52090;51.224;-2.328;2022-07-10T20:23:31;24.50;42.30
65050;DHT22;52090;51.224;-2.328;2022-07-10T20:27:14;24.50;42.50
65050;DHT22;52090;51.224;-2.328;2022-07-10T20:30:58;24.40;42.70
65050;DHT22;52090;51.224;-2.328;2022-07-10T20:34:40;24.30;42.80
65050;DHT22;52090;51.224;-2.328;2022-07-10T20:38:22;24.30;42.80
65050;DHT22;52090;51.224;-2.328;2022-07-10T20:42:05;24.20;43.00
65050;DHT22;52090;51.224;-2.328;2022-07-10T20:45:48;24.10;42.90
65050;DHT22;52090;51.224;-2.328;2022-07-10T20:49:30;24.00;43.00
65050;DHT22;52090;51.224;-2.328;2022-07-10T20:53:12;23.90;43.70
65050;DHT22;52090;51.224;-2.328;2022-07-10T20:56:53;23.80;45.40
65050;DHT22;52090;51.224;-2.328;2022-07-10T21:00:35;23.70;45.50
65050;DHT22;52090;51.224;-2.328;2022-07-10T21:04:17;23.60;46.20
65050;DHT22;52090;51.224;-2.328;2022-07-10T21:08:03;23.40;46.80
65050;DHT22;52090;51.224;-2.328;2022-07-10T21:11:45;23.30;48.50
65050;DHT22;52090;51.224;-2.328;2022-07-10T21:15:27;23.20;47.90
65050;DHT22;52090;51.224;-2.328;2022-07-10T21:19:11;23.20;48.30
65050;DHT22;52090;51.224;-2.328;2022-07-10T21:22:52;23.10;47.70
65050;DHT22;52090;51.224;-2.328;2022-07-10T21:26:34;23.00;48.80
65050;DHT22;52090;51.224;-2.328;2022-07-10T21:30:16;22.90;49.60
65050;DHT22;52090;51.224;-2.328;2022-07-10T21:33:58;22.80;50.30
65050;DHT22;52090;51.224;-2.328;2022-07-10T21:37:41;22.80;50.80
65050;DHT22;52090;51.224;-2.328;2022-07-10T21:41:23;22.70;51.40
65050;DHT22;52090;51.224;-2.328;2022-07-10T21:45:05;22.60;51.60
65050;DHT22;52090;51.224;-2.328;2022-07-10T21:48:47;22.50;52.20
65050;DHT22;52090;51.224;-2.328;2022-07-10T21:52:29;22.50;52.50
65050;DHT22;52090;51.224;-2.328;2022-07-10T21:56:11;22.40;52.80
65050;DHT22;52090;51.224;-2.328;2022-07-10T21:59:53;22.40;53.10
65050;DHT22;52090;51.224;-2.328;2022-07-10T22:03:34;22.30;53.40
65050;DHT22;52090;51.224;-2.328;2022-07-10T22:07:16;22.20;53.60
65050;DHT22;52090;51.224;-2.328;2022-07-10T22:10:58;22.20;54.70
65050;DHT22;52090;51.224;-2.328;2022-07-10T22:14:40;22.10;54.20
65050;DHT22;52090;51.224;-2.328;2022-07-10T22:18:23;22.10;54.40
65050;DHT22;52090;51.224;-2.328;2022-07-10T22:22:05;22.00;54.50
65050;DHT22;52090;51.224;-2.328;2022-07-10T22:25:48;22.00;54.70
65050;DHT22;52090;51.224;-2.328;2022-07-10T22:29:29;21.90;55.40
65050;DHT22;52090;51.224;-2.328;2022-07-10T22:33:12;21.90;54.40
65050;DHT22;52090;51.224;-2.328;2022-07-10T22:36:54;21.80;54.80
65050;DHT22;52090;51.224;-2.328;2022-07-10T22:40:35;21.70;55.40
65050;DHT22;52090;51.224;-2.328;2022-07-10T22:44:17;21.70;55.70
65050;DHT22;52090;51.224;-2.328;2022-07-10T22:47:59;21.60;55.90
65050;DHT22;52090;51.224;-2.328;2022-07-10T22:51:41;21.50;56.10
65050;DHT22;52090;51.224;-2.328;2022-07-10T22:55:23;21.50;56.40
65050;DHT22;52090;51.224;-2.328;2022-07-10T22:59:05;21.50;56.70
65050;DHT22;52090;51.224;-2.328;2022-07-10T23:02:49;21.40;56.70
65050;DHT22;52090;51.224;-2.328;2022-07-10T23:06:31;21.30;56.90
65050;DHT22;52090;51.224;-2.328;2022-07-10T23:10:12;21.30;57.00
65050;DHT22;52090;51.224;-2.328;2022-07-10T23:13:54;21.30;57.20
65050;DHT22;52090;51.224;-2.328;2022-07-10T23:17:36;21.20;57.20
65050;DHT22;52090;51.224;-2.328;2022-07-10T23:21:18;21.20;58.20
65050;DHT22;52090;51.224;-2.328;2022-07-10T23:25:01;21.20;57.70